Time;durP1;ratioP1;P1;durP2;ratioP2;P2;SDS_P1;SDS_P2;PMS_P1;PMS_P2;Temp;Humidity;BMP_temperature;BMP_pressure;BME280_temperature;BME280_humidity;BME280_pressure;Samples;Min_cycle;Max_cycle;Signal;HPM_P1;HPM_P2
2022/08/14 00:00:24;;;;;;;2.92;1.00;;;;;;;15.84;100.00;100371.56;5021075;28;20492;-48
2022/08/14 00:02:51;;;;;;;2.05;0.82;;;;;;;15.83;100.00;100370.75;5021174;28;20021;-48
2022/08/14 00:05:19;;;;;;;4.38;1.13;;;;;;;15.81;100.00;100375.53;5017400;28;20065;-50
2022/08/14 00:07:46;;;;;;;3.47;0.98;;;;;;;15.78;100.00;100367.97;5021358;28;20479;-49
2022/08/14 00:10:14;;;;;;;1.42;1.33;;;;;;;15.73;100.00;100364.34;5033872;28;20071;-50
2022/08/14 00:12:52;;;;;;;1.65;0.88;;;;;;;15.66;100.00;100361.72;5018685;28;20061;-50
2022/08/14 00:15:23;;;;;;;2.40;0.60;;;;;;;15.61;100.00;100358.91;5015571;28;20029;-50
2022/08/14 00:17:49;;;;;;;0.77;0.57;;;;;;;15.55;100.00;100355.28;5023899;28;20026;-48
2022/08/14 00:20:17;;;;;;;1.77;0.50;;;;;;;15.52;100.00;100344.25;5019390;28;20297;-47
2022/08/14 00:22:42;;;;;;;2.60;0.90;;;;;;;15.52;100.00;100341.59;5019879;28;20100;-49
2022/08/14 00:25:09;;;;;;;4.93;1.05;;;;;;;15.51;100.00;100345.28;5023481;28;20403;-49
2022/08/14 00:27:35;;;;;;;3.45;0.70;;;;;;;15.47;100.00;100342.25;5020940;28;20034;-50
2022/08/14 00:30:00;;;;;;;1.27;0.80;;;;;;;15.42;100.00;100331.44;5032675;28;20032;-50
2022/08/14 00:32:26;;;;;;;5.70;1.02;;;;;;;15.33;100.00;100336.25;5016493;28;20021;-53
2022/08/14 00:34:51;;;;;;;1.75;0.55;;;;;;;15.28;100.00;100338.78;5019571;28;20021;-49
2022/08/14 00:37:16;;;;;;;1.10;0.80;;;;;;;15.27;100.00;100337.16;5021075;28;20076;-48
2022/08/14 00:39:42;;;;;;;3.97;1.30;;;;;;;15.26;100.00;100335.56;5021550;28;20455;-50
2022/08/14 00:42:07;;;;;;;8.00;1.25;;;;;;;15.25;100.00;100328.56;5015188;28;20434;-49
2022/08/14 00:44:33;;;;;;;1.65;0.55;;;;;;;15.21;100.00;100327.41;5012964;28;20056;-48
2022/08/14 00:47:07;;;;;;;2.25;0.70;;;;;;;15.15;100.00;100328.28;5014020;28;20029;-49
2022/08/14 00:49:32;;;;;;;0.95;0.82;;;;;;;15.12;100.00;100324.19;5017364;28;20033;-48
2022/08/14 00:51:59;;;;;;;2.72;0.70;;;;;;;15.02;100.00;100319.41;5021877;28;20028;-50
2022/08/14 00:54:25;;;;;;;1.40;0.90;;;;;;;14.97;100.00;100321.09;5017447;28;20030;-48
2022/08/14 00:56:52;;;;;;;3.67;0.77;;;;;;;14.92;100.00;100316.47;5022531;28;20025;-50
2022/08/14 00:59:17;;;;;;;1.17;0.85;;;;;;;14.91;100.00;100316.66;5019110;28;20047;-47
2022/08/14 01:01:44;;;;;;;0.88;0.65;;;;;;;14.84;100.00;100322.06;5028582;28;20459;-48
2022/08/14 01:04:10;;;;;;;2.30;0.80;;;;;;;14.78;100.00;100314.97;5024303;28;20029;-49
2022/08/14 01:06:36;;;;;;;1.60;0.75;;;;;;;14.71;100.00;100316.88;5020073;28;20470;-52
2022/08/14 01:09:02;;;;;;;0.93;0.90;;;;;;;14.66;100.00;100319.41;5020799;28;20031;-51
2022/08/14 01:11:28;;;;;;;5.25;1.27;;;;;;;14.68;100.00;100317.34;5022687;28;20378;-48
2022/08/14 01:13:58;;;;;;;1.10;0.93;;;;;;;14.65;100.00;100323.94;5016125;28;22076;-47
2022/08/14 01:16:24;;;;;;;3.50;0.80;;;;;;;14.59;100.00;100322.97;5025986;28;20104;-50
2022/08/14 01:21:39;;;;;;;3.13;0.77;;;;;;;14.36;100.00;100320.91;5024208;28;20045;-50
2022/08/14 01:24:09;;;;;;;1.10;1.00;;;;;;;14.30;100.00;100321.78;5020290;28;20037;-49
2022/08/14 01:26:35;;;;;;;2.45;1.20;;;;;;;14.28;100.00;100323.03;5015157;28;20136;-51
2022/08/14 01:29:03;;;;;;;1.20;0.60;;;;;;;14.22;100.00;100319.38;5026892;28;20402;-47
2022/08/14 01:31:32;;;;;;;1.70;0.77;;;;;;;14.13;100.00;100326.84;5027344;28;20029;-48
2022/08/14 01:34:00;;;;;;;6.07;1.27;;;;;;;14.07;100.00;100325.06;5016409;28;20029;-48
2022/08/14 01:36:27;;;;;;;2.88;0.68;;;;;;;14.07;100.00;100319.72;5023439;28;20045;-47
2022/08/14 01:38:56;;;;;;;5.43;0.80;;;;;;;14.04;100.00;100316.66;5026177;28;20030;-52
2022/08/14 01:41:23;;;;;;;3.00;1.13;;;;;;;13.91;100.00;100313.09;5028377;28;20021;-51
2022/08/14 01:43:54;;;;;;;0.82;0.82;;;;;;;13.74;100.00;100318.13;5016461;28;20091;-48
2022/08/14 01:46:22;;;;;;;2.42;0.80;;;;;;;13.62;100.00;100316.38;5023093;28;20395;-53
2022/08/14 01:48:48;;;;;;;1.95;1.00;;;;;;;13.55;100.00;100313.72;5022205;28;20117;-51
2022/08/14 01:51:16;;;;;;;1.13;1.02;;;;;;;13.57;100.00;100310.88;5021354;28;20025;-49
2022/08/14 01:53:46;;;;;;;1.00;0.73;;;;;;;13.53;100.00;100315.81;5021757;28;20025;-50
2022/08/14 01:56:17;;;;;;;1.58;0.52;;;;;;;13.53;100.00;100305.16;5026699;28;20095;-52
2022/08/14 01:58:44;;;;;;;1.05;0.95;;;;;;;13.47;100.00;100301.47;5024251;28;20036;-48
2022/08/14 02:01:09;;;;;;;1.35;0.88;;;;;;;13.41;100.00;100294.34;5027444;28;20030;-49
2022/08/14 02:03:39;;;;;;;5.50;1.17;;;;;;;13.39;100.00;100292.94;5024550;28;20032;-49
2022/08/14 02:06:05;;;;;;;2.60;1.63;;;;;;;13.33;100.00;100288.47;5027789;28;20112;-51
2022/08/14 02:08:30;;;;;;;1.98;0.65;;;;;;;13.21;100.00;100294.44;5022685;28;20032;-53
2022/08/14 02:11:20;;;;;;;1.05;0.98;;;;;;;13.18;100.00;100289.53;5019519;28;20375;-49
2022/08/14 02:13:50;;;;;;;6.90;0.98;;;;;;;13.17;100.00;100281.78;5020000;28;20041;-50
2022/08/14 02:16:17;;;;;;;3.08;0.70;;;;;;;13.20;100.00;100282.16;5022881;28;20049;-50
2022/08/14 02:18:44;;;;;;;1.45;0.93;;;;;;;13.27;100.00;100279.50;5017019;28;20178;-49
2022/08/14 02:21:13;;;;;;;1.13;0.68;;;;;;;13.28;100.00;100273.13;5026951;28;20127;-48
2022/08/14 02:23:39;;;;;;;2.70;0.65;;;;;;;13.25;100.00;100266.38;5015299;28;20037;-49
2022/08/14 02:26:23;;;;;;;2.30;1.17;;;;;;;13.27;100.00;100261.69;5012696;28;20033;-52
2022/08/14 02:28:53;;;;;;;2.05;0.70;;;;;;;13.22;100.00;100265.97;5014974;28;20125;-47
2022/08/14 02:31:19;;;;;;;1.42;1.02;;;;;;;13.17;100.00;100255.16;5027335;28;20514;-47
2022/08/14 02:33:46;;;;;;;1.92;1.35;;;;;;;13.16;100.00;100256.97;5024245;28;20048;-50
2022/08/14 02:36:12;;;;;;;3.78;1.17;;;;;;;13.17;100.00;100253.31;5028391;28;20067;-49
2022/08/14 02:38:39;;;;;;;6.20;1.33;;;;;;;13.18;100.00;100251.47;5018658;28;20030;-48
2022/08/14 02:41:08;;;;;;;2.58;1.25;;;;;;;13.16;100.00;100251.66;5020951;28;20065;-54
2022/08/14 02:43:33;;;;;;;0.80;0.68;;;;;;;13.09;100.00;100250.91;5021832;28;20033;-49
2022/08/14 02:45:59;;;;;;;2.15;0.60;;;;;;;13.04;100.00;100251.53;5021431;28;20147;-50
2022/08/14 02:48:30;;;;;;;4.30;1.88;;;;;;;13.00;100.00;100246.84;5022271;28;20033;-50
2022/08/14 02:50:56;;;;;;;3.97;1.52;;;;;;;12.96;100.00;100240.28;5019317;28;20034;-50
2022/08/14 02:53:22;;;;;;;3.20;0.95;;;;;;;12.93;100.00;100243.38;5015559;28;20033;-52
2022/08/14 02:55:47;;;;;;;5.70;1.05;;;;;;;12.90;100.00;100244.63;5020523;28;20038;-50
2022/08/14 02:58:13;;;;;;;1.20;0.43;;;;;;;12.86;100.00;100240.78;5023593;28;20029;-50
2022/08/14 03:00:38;;;;;;;1.33;0.93;;;;;;;12.81;100.00;100248.56;5025307;28;20119;-48
2022/08/14 03:03:04;;;;;;;0.75;0.63;;;;;;;12.80;100.00;100237.13;5019111;28;20088;-51
2022/08/14 03:05:29;;;;;;;1.50;0.85;;;;;;;12.80;100.00;100238.94;5023067;28;20455;-49
2022/08/14 03:08:06;;;;;;;1.50;1.40;;;;;;;12.82;100.00;100250.19;5019131;28;20095;-51
2022/08/14 03:10:32;;;;;;;5.22;1.45;;;;;;;12.80;100.00;100247.75;5023562;28;20021;-50
2022/08/14 03:12:57;;;;;;;2.80;0.85;;;;;;;12.77;100.00;100242.84;5023241;28;20466;-47
2022/08/14 03:15:23;;;;;;;1.08;0.98;;;;;;;12.75;100.00;100244.91;5014337;28;20029;-50
2022/08/14 03:17:51;;;;;;;0.90;0.73;;;;;;;12.72;100.00;100242.66;5026265;28;20539;-48
2022/08/14 03:20:17;;;;;;;0.52;0.32;;;;;;;12.65;100.00;100242.69;5019841;28;20029;-48
2022/08/14 03:22:43;;;;;;;1.77;0.47;;;;;;;12.62;100.00;100247.59;5022121;28;20501;-52
2022/08/14 03:25:10;;;;;;;1.02;0.57;;;;;;;12.61;100.00;100238.81;5014999;28;20441;-49
2022/08/14 03:27:36;;;;;;;1.67;0.98;;;;;;;12.55;100.00;100244.16;5026024;28;20025;-51
2022/08/14 03:30:03;;;;;;;0.85;0.60;;;;;;;12.52;100.00;100242.75;5023030;28;20481;-49
2022/08/14 03:32:29;;;;;;;1.05;0.60;;;;;;;12.46;100.00;100245.41;5017276;28;20030;-47
2022/08/14 03:34:55;;;;;;;2.13;0.88;;;;;;;12.44;100.00;100249.09;5022487;28;20126;-52
2022/08/14 03:37:20;;;;;;;2.10;1.10;;;;;;;12.47;100.00;100242.56;5019927;28;20112;-49
2022/08/14 03:39:46;;;;;;;1.55;0.57;;;;;;;12.48;100.00;100244.19;5025208;28;20067;-52
2022/08/14 03:42:12;;;;;;;2.08;0.70;;;;;;;12.54;100.00;100248.66;5019816;28;20076;-48
2022/08/14 03:44:38;;;;;;;3.13;0.80;;;;;;;12.51;100.00;100243.75;5021496;28;20053;-48
2022/08/14 03:47:05;;;;;;;3.95;1.42;;;;;;;12.49;100.00;100248.47;5023740;28;20455;-52
2022/08/14 03:49:30;;;;;;;1.65;0.70;;;;;;;12.47;100.00;100244.38;5019245;28;20050;-46
2022/08/14 03:52:03;;;;;;;0.85;0.60;;;;;;;12.45;100.00;100244.59;5018414;28;20053;-49
2022/08/14 03:54:29;;;;;;;1.55;0.77;;;;;;;12.40;100.00;100234.59;5017827;28;20022;-49
2022/08/14 03:56:59;;;;;;;5.00;1.92;;;;;;;12.35;100.00;100233.59;5015967;28;20038;-48
2022/08/14 03:59:25;;;;;;;1.08;1.08;;;;;;;12.30;100.00;100239.53;5023777;28;20033;-52
2022/08/14 04:01:51;;;;;;;2.50;0.90;;;;;;;12.29;100.00;100234.41;5024608;28;20036;-50
2022/08/14 04:04:17;;;;;;;3.10;1.23;;;;;;;12.25;100.00;100238.50;5019115;28;20029;-49
2022/08/14 04:06:42;;;;;;;0.50;0.50;;;;;;;12.20;100.00;100239.94;5019517;28;20032;-47
2022/08/14 04:09:08;;;;;;;1.30;0.50;;;;;;;12.13;100.00;100239.16;5015032;28;20042;-49
2022/08/14 04:11:37;;;;;;;1.83;1.20;;;;;;;12.08;100.00;100233.66;5025594;28;20046;-52
2022/08/14 04:14:04;;;;;;;1.80;0.60;;;;;;;12.06;100.00;100234.88;5017619;28;20037;-48
2022/08/14 04:16:30;;;;;;;1.85;1.20;;;;;;;12.08;100.00;100232.81;5025850;28;20033;-47
2022/08/14 04:18:58;;;;;;;3.05;0.80;;;;;;;12.07;100.00;100234.66;5023968;28;20487;-48
2022/08/14 04:21:27;;;;;;;4.57;1.48;;;;;;;12.09;100.00;100235.25;5019986;28;20028;-51
2022/08/14 04:23:54;;;;;;;3.50;1.17;;;;;;;12.07;100.00;100220.56;5015360;28;20444;-49
2022/08/14 04:26:20;;;;;;;1.77;0.73;;;;;;;12.05;100.00;100228.72;5019219;28;20117;-49
2022/08/14 04:28:48;;;;;;;0.75;0.68;;;;;;;12.08;100.00;100212.38;5014682;28;20458;-48
2022/08/14 04:31:15;;;;;;;1.00;0.57;;;;;;;12.09;100.00;100215.84;5024570;28;20087;-50
2022/08/14 04:33:40;;;;;;;0.77;0.77;;;;;;;12.04;100.00;100215.66;5027304;28;20556;-49
2022/08/14 04:36:06;;;;;;;0.95;0.90;;;;;;;12.00;100.00;100217.91;5028163;28;20104;-49
2022/08/14 04:44:01;;;;;;;1.00;0.90;;;;;;;11.82;100.00;100207.88;5029156;28;20596;-50
2022/08/14 04:46:27;;;;;;;0.90;0.57;;;;;;;11.77;100.00;100207.66;5022000;28;20450;-49
2022/08/14 04:48:53;;;;;;;0.60;0.52;;;;;;;11.75;100.00;100210.53;5022337;28;20415;-49
2022/08/14 04:51:25;;;;;;;1.48;0.88;;;;;;;11.72;100.00;100210.13;5021639;28;20045;-48
2022/08/14 04:53:51;;;;;;;0.88;0.88;;;;;;;11.67;100.00;100205.44;5018318;28;20437;-49
2022/08/14 04:56:21;;;;;;;3.00;0.80;;;;;;;11.67;100.00;100208.09;5024838;28;20078;-50
2022/08/14 04:58:47;;;;;;;0.77;0.70;;;;;;;11.65;100.00;100207.47;5022722;28;20079;-49
2022/08/14 05:01:13;;;;;;;0.85;0.85;;;;;;;11.62;100.00;100204.44;5016133;28;20053;-49
2022/08/14 05:03:39;;;;;;;1.27;0.90;;;;;;;11.60;100.00;100206.47;5020989;28;20430;-51
2022/08/14 05:06:10;;;;;;;1.73;1.33;;;;;;;11.59;100.00;100200.34;5022775;28;20124;-51
2022/08/14 05:08:37;;;;;;;0.98;0.70;;;;;;;11.57;100.00;100205.84;5023456;28;20148;-51
2022/08/14 05:11:05;;;;;;;2.08;0.75;;;;;;;11.60;100.00;100194.00;5016603;28;20112;-49
2022/08/14 05:13:31;;;;;;;2.35;0.47;;;;;;;11.63;100.00;100198.09;5028837;28;20079;-47
2022/08/14 05:15:59;;;;;;;1.17;0.70;;;;;;;11.64;100.00;100197.06;5023005;28;20068;-47
2022/08/14 05:18:30;;;;;;;0.68;0.68;;;;;;;11.69;100.00;100203.38;5023541;28;20025;-52
2022/08/14 05:20:57;;;;;;;0.70;0.70;;;;;;;11.75;100.00;100202.56;5021495;28;20108;-49
2022/08/14 05:23:26;;;;;;;1.50;1.40;;;;;;;11.81;100.00;100200.94;5025907;28;20052;-48
2022/08/14 05:26:15;;;;;;;1.95;0.50;;;;;;;11.87;100.00;100200.13;5017102;28;20034;-48
2022/08/14 05:28:44;;;;;;;5.35;1.17;;;;;;;11.99;100.00;100203.78;5015748;28;20712;-49
2022/08/14 05:31:12;;;;;;;4.20;1.10;;;;;;;12.10;100.00;100204.19;5019496;28;20029;-49
2022/08/14 05:33:38;;;;;;;0.55;0.55;;;;;;;12.09;100.00;100187.44;5020199;28;20030;-48
2022/08/14 05:36:07;;;;;;;1.65;0.82;;;;;;;12.03;100.00;100188.28;5025913;28;20033;-47
2022/08/14 05:38:35;;;;;;;3.88;0.70;;;;;;;11.97;100.00;100187.25;5022970;28;20029;-48
2022/08/14 05:41:12;;;;;;;2.50;1.13;;;;;;;11.95;100.00;100189.31;5022611;28;20049;-50
2022/08/14 05:43:39;;;;;;;0.77;0.77;;;;;;;11.96;100.00;100182.97;5024138;28;20045;-51
2022/08/14 05:46:06;;;;;;;5.10;0.75;;;;;;;12.00;100.00;100188.66;5021734;28;20088;-48
2022/08/14 05:48:32;;;;;;;2.75;0.98;;;;;;;12.03;100.00;100192.75;5017004;28;20105;-49
2022/08/14 05:50:58;;;;;;;2.22;1.00;;;;;;;12.10;100.00;100193.56;5026080;28;20469;-47
2022/08/14 05:53:24;;;;;;;1.92;0.80;;;;;;;12.18;100.00;100188.84;5024005;28;20029;-49
2022/08/14 05:55:51;;;;;;;2.25;0.50;;;;;;;12.28;100.00;100196.38;5021687;28;20531;-52
2022/08/14 05:58:16;;;;;;;1.40;0.77;;;;;;;12.33;100.00;100191.25;5015189;28;20029;-51
2022/08/14 06:00:44;;;;;;;1.95;0.95;;;;;;;12.45;100.00;100199.41;5022285;28;20030;-50
2022/08/14 06:03:15;;;;;;;0.80;0.80;;;;;;;12.61;100.00;100201.56;5020385;28;20029;-49
2022/08/14 06:05:42;;;;;;;1.15;1.05;;;;;;;12.70;100.00;100194.19;5016923;28;20343;-49
2022/08/14 06:08:36;;;;;;;3.35;1.02;;;;;;;12.79;100.00;100192.91;5023214;28;20037;-50
2022/08/14 06:11:05;;;;;;;2.72;1.35;;;;;;;12.88;100.00;100196.13;5015876;28;20038;-49
2022/08/14 06:13:41;;;;;;;2.75;1.30;;;;;;;13.00;100.00;100188.28;5027514;28;20180;-50
2022/08/14 06:16:07;;;;;;;1.35;0.85;;;;;;;13.07;100.00;100186.41;5024428;28;20033;-53
2022/08/14 06:18:34;;;;;;;1.55;1.10;;;;;;;13.16;100.00;100193.09;5022178;28;20025;-50
2022/08/14 06:21:00;;;;;;;0.95;0.73;;;;;;;13.25;100.00;100197.13;5021417;28;20140;-47
2022/08/14 06:23:25;;;;;;;1.67;1.05;;;;;;;13.34;100.00;100184.41;5027799;28;20159;-49
2022/08/14 06:25:51;;;;;;;5.07;1.00;;;;;;;13.49;100.00;100186.75;5026312;28;20057;-48
2022/08/14 06:28:18;;;;;;;1.17;0.93;;;;;;;13.62;100.00;100181.31;5019471;28;20091;-49
2022/08/14 06:30:44;;;;;;;1.23;0.47;;;;;;;13.84;100.00;100191.59;5019958;28;20026;-47
2022/08/14 06:33:10;;;;;;;3.53;0.77;;;;;;;14.03;100.00;100187.91;5023873;28;20083;-54
2022/08/14 06:35:35;;;;;;;4.45;0.93;;;;;;;14.13;100.00;100192.72;5017910;28;20040;-48
2022/08/14 06:38:00;;;;;;;2.45;1.30;;;;;;;14.25;100.00;100184.78;5024617;28;20033;-49
2022/08/14 06:40:34;;;;;;;1.75;0.80;;;;;;;14.39;100.00;100184.44;5015501;28;20113;-51
2022/08/14 06:43:05;;;;;;;0.88;0.57;;;;;;;14.57;100.00;100185.50;5028171;28;20033;-51
2022/08/14 06:45:33;;;;;;;0.80;0.80;;;;;;;14.66;100.00;100191.31;5024971;28;20137;-48
2022/08/14 06:48:00;;;;;;;0.65;0.65;;;;;;;14.81;100.00;100183.72;5017793;28;20501;-47
2022/08/14 06:50:26;;;;;;;0.65;0.65;;;;;;;14.97;100.00;100182.28;5017351;28;20820;-49
2022/08/14 06:52:52;;;;;;;1.77;1.25;;;;;;;15.13;100.00;100188.84;5022932;28;20113;-49
2022/08/14 06:55:18;;;;;;;0.95;0.73;;;;;;;15.26;100.00;100180.63;5014445;28;20127;-50
2022/08/14 06:57:49;;;;;;;2.10;1.02;;;;;;;15.43;100.00;100176.25;5023442;28;20037;-46
2022/08/14 07:00:21;;;;;;;0.88;0.63;;;;;;;15.61;100.00;100169.97;5016953;28;20192;-50
2022/08/14 07:05:47;;;;;;;1.73;0.80;;;;;;;16.08;100.00;100163.84;5018110;28;20072;-49
2022/08/14 07:08:13;;;;;;;;;;;;;;;16.33;100.00;100159.03;5013377;28;20025;-47
2022/08/14 07:10:39;;;;;;;0.98;0.70;;;;;;;16.60;100.00;100152.31;5015411;28;19941;-49
2022/08/14 07:13:05;;;;;;;1.00;0.63;;;;;;;16.83;100.00;100146.06;5014650;28;20055;-49
2022/08/14 07:15:33;;;;;;;3.03;0.82;;;;;;;17.12;100.00;100142.31;5022978;28;20053;-52
2022/08/14 07:17:59;;;;;;;1.85;0.95;;;;;;;17.42;100.00;100143.84;5021943;28;20029;-48
2022/08/14 07:20:26;;;;;;;1.25;0.40;;;;;;;17.78;100.00;100139.03;5015112;28;20371;-53
2022/08/14 07:22:57;;;;;;;1.13;0.75;;;;;;;18.29;100.00;100137.03;5013289;28;20100;-51
2022/08/14 07:25:23;;;;;;;5.68;0.50;;;;;;;18.78;100.00;100129.00;5027290;28;20036;-51
2022/08/14 07:27:48;;;;;;;2.42;0.47;;;;;;;19.35;100.00;100120.34;5017795;28;20034;-48
2022/08/14 07:30:14;;;;;;;0.10;0.10;;;;;;;19.61;100.00;100115.16;5022940;28;20470;-48
2022/08/14 07:32:39;;;;;;;1.02;0.40;;;;;;;19.81;100.00;100109.91;5016871;28;20394;-52
2022/08/14 07:35:05;;;;;;;0.65;0.40;;;;;;;20.13;100.00;100098.22;5019737;28;20048;-52
2022/08/14 07:37:30;;;;;;;3.08;0.43;;;;;;;20.52;100.00;100097.78;5020570;28;20017;-49
2022/08/14 07:39:55;;;;;;;2.28;0.22;;;;;;;20.75;100.00;100103.78;5013881;28;20033;-53
2022/08/14 07:42:22;;;;;;;0.50;0.40;;;;;;;20.91;100.00;100095.47;5022006;28;20030;-52
2022/08/14 07:44:47;;;;;;;1.13;0.20;;;;;;;21.09;100.00;100096.81;5025801;28;20033;-53
2022/08/14 07:47:14;;;;;;;0.50;0.10;;;;;;;21.34;100.00;100092.47;5021368;28;20018;-53
2022/08/14 07:49:40;;;;;;;0.63;0.63;;;;;;;21.56;100.00;100079.53;5025976;28;20049;-52
2022/08/14 07:52:06;;;;;;;1.85;0.88;;;;;;;21.70;100.00;100084.34;5015855;28;20164;-52
2022/08/14 07:54:31;;;;;;;0.77;0.45;;;;;;;21.98;100.00;100078.31;5016515;28;20029;-51
2022/08/14 07:56:58;;;;;;;0.80;0.20;;;;;;;22.07;100.00;100080.41;5017568;28;20490;-52
2022/08/14 07:59:23;;;;;;;1.52;0.47;;;;;;;22.31;100.00;100077.91;5019535;28;20275;-54
2022/08/14 08:01:51;;;;;;;1.17;0.35;;;;;;;22.43;100.00;100075.66;5020981;28;20488;-49
2022/08/14 08:04:21;;;;;;;1.17;0.20;;;;;;;22.52;100.00;100076.69;5020859;28;20042;-51
2022/08/14 08:06:47;;;;;;;3.83;0.20;;;;;;;22.71;100.00;100067.91;5009794;28;20531;-53
2022/08/14 08:09:13;;;;;;;0.63;0.20;;;;;;;22.82;100.00;100055.94;5026929;28;20390;-53
2022/08/14 08:11:41;;;;;;;6.43;0.68;;;;;;;22.99;100.00;100060.97;5025956;28;20494;-51
2022/08/14 08:14:06;;;;;;;4.97;0.35;;;;;;;23.14;100.00;100050.03;5025438;28;20530;-52
2022/08/14 08:16:33;;;;;;;0.28;0.28;;;;;;;23.30;100.00;100039.84;5016590;28;20104;-53
2022/08/14 08:18:59;;;;;;;0.43;0.22;;;;;;;23.39;100.00;100034.63;5024936;28;20044;-54
2022/08/14 08:21:25;;;;;;;0.95;0.30;;;;;;;23.54;100.00;100029.03;5024094;28;20029;-55
2022/08/14 08:23:51;;;;;;;3.83;0.28;;;;;;;23.70;100.00;100033.19;5015661;28;20486;-54
2022/08/14 08:26:16;;;;;;;0.95;0.30;;;;;;;23.81;100.00;100014.16;5014994;28;20037;-54
2022/08/14 08:28:42;;;;;;;0.52;0.13;;;;;;;23.98;100.00;100019.84;5024010;28;20084;-52
2022/08/14 08:31:07;;;;;;;1.98;0.10;;;;;;;24.09;100.00;100015.94;5020436;28;20030;-50
2022/08/14 08:33:37;;;;;;;8.57;0.30;;;;;;;24.21;100.00;100010.06;5020214;28;20046;-54
2022/08/14 08:36:10;;;;;;;0.88;0.10;;;;;;;24.30;100.00;100007.50;5029842;28;20528;-54
2022/08/14 08:38:35;;;;;;;0.93;0.10;;;;;;;24.37;100.00;100005.25;5019330;28;20022;-55
2022/08/14 08:41:01;;;;;;;1.02;0.30;;;;;;;24.51;100.00;100008.84;5017900;28;20033;-54
2022/08/14 08:43:34;;;;;;;0.35;0.30;;;;;;;24.63;100.00;100002.13;5024942;28;20052;-55
2022/08/14 08:46:13;;;;;;;2.85;0.10;;;;;;;24.90;100.00;99987.88;5024688;28;20453;-52
2022/08/14 08:48:47;;;;;;;0.20;0.20;;;;;;;25.04;100.00;99988.69;5014371;28;20114;-56
2022/08/14 08:51:22;;;;;;;1.83;0.63;;;;;;;25.26;100.00;99985.31;5020405;28;20337;-50
2022/08/14 08:54:04;;;;;;;1.13;0.20;;;;;;;25.44;100.00;99994.47;5020732;28;20026;-56
2022/08/14 08:56:44;;;;;;;11.32;0.52;;;;;;;25.60;100.00;99984.09;5018398;28;20026;-51
2022/08/14 08:59:16;;;;;;;0.10;0.10;;;;;;;25.71;100.00;99977.34;5019607;28;20042;-57
2022/08/14 09:01:41;;;;;;;1.05;0.10;;;;;;;25.90;100.00;99988.13;5025507;28;20443;-56
2022/08/14 09:04:06;;;;;;;2.80;0.25;;;;;;;26.17;100.00;99992.66;5021304;28;20075;-55
2022/08/14 09:06:43;;;;;;;2.20;0.30;;;;;;;26.28;98.52;99987.78;5019444;28;20050;-53
2022/08/14 09:09:17;;;;;;;1.27;0.30;;;;;;;26.42;97.63;99991.25;5026026;28;20032;-54
2022/08/14 09:11:43;;;;;;;0.30;0.30;;;;;;;26.62;96.62;99992.72;5023666;28;20064;-52
2022/08/14 09:14:08;;;;;;;1.42;0.25;;;;;;;26.85;94.40;99981.78;5023574;28;20022;-52
2022/08/14 09:16:34;;;;;;;1.05;0.15;;;;;;;27.07;94.78;99983.66;5021794;28;20041;-51
2022/08/14 09:18:59;;;;;;;1.77;0.20;;;;;;;27.06;92.25;99985.59;5017232;28;20038;-55
2022/08/14 09:21:25;;;;;;;1.83;0.40;;;;;;;27.12;91.23;99986.25;5026660;28;20061;-53
2022/08/14 09:23:54;;;;;;;0.20;0.10;;;;;;;27.16;89.07;99985.31;5022728;28;20021;-54
2022/08/14 09:26:19;;;;;;;2.60;0.32;;;;;;;27.30;86.47;99981.72;5021640;28;20112;-55
2022/08/14 09:28:44;;;;;;;0.10;0.10;;;;;;;27.45;86.08;99975.84;5025766;28;20045;-52
2022/08/14 09:31:12;;;;;;;4.25;0.95;;;;;;;27.61;85.05;99971.53;5025190;28;20582;-54
2022/08/14 09:34:02;;;;;;;1.88;0.40;;;;;;;27.67;81.50;99965.94;5022867;28;20036;-53
2022/08/14 09:36:46;;;;;;;0.30;0.20;;;;;;;27.84;81.80;99966.00;5021714;28;20446;-55
2022/08/14 09:39:45;;;;;;;0.60;0.20;;;;;;;28.06;80.02;99962.31;5017786;28;20038;-55
2022/08/14 09:42:28;;;;;;;2.63;0.30;;;;;;;28.20;79.49;99967.63;5015127;28;20029;-55
2022/08/14 09:45:11;;;;;;;1.75;0.40;;;;;;;28.39;75.21;99967.28;5030299;28;20029;-55
2022/08/14 09:47:56;;;;;;;0.25;0.13;;;;;;;28.56;74.52;99958.31;5027352;28;20029;-55
2022/08/14 09:50:28;;;;;;;0.68;0.10;;;;;;;28.67;75.05;99959.56;5022324;28;20029;-53
2022/08/14 09:52:53;;;;;;;2.00;0.43;;;;;;;28.79;74.52;99959.69;5021235;28;20132;-54
2022/08/14 09:55:22;;;;;;;0.45;0.22;;;;;;;28.99;73.27;99951.91;5018379;28;20113;-55
2022/08/14 09:57:49;;;;;;;0.57;0.20;;;;;;;29.10;70.21;99956.72;5017942;28;20051;-53
2022/08/14 10:00:17;;;;;;;2.10;0.30;;;;;;;29.25;70.36;99949.91;5027298;28;20025;-54
2022/08/14 10:02:55;;;;;;;2.10;0.30;;;;;;;29.31;67.08;99939.59;5018040;28;20045;-54
2022/08/14 10:05:30;;;;;;;1.33;0.68;;;;;;;29.49;67.41;99949.28;5021546;28;20042;-50
2022/08/14 10:07:56;;;;;;;1.20;0.20;;;;;;;29.77;67.07;99940.59;5021999;28;20499;-50
2022/08/14 10:10:38;;;;;;;1.60;0.30;;;;;;;29.89;65.42;99937.13;5024798;28;20029;-49
2022/08/14 10:13:20;;;;;;;1.80;0.52;;;;;;;29.85;61.47;99928.00;5025285;28;20068;-54
2022/08/14 10:15:47;;;;;;;3.65;0.20;;;;;;;29.87;62.67;99928.47;5019851;28;20074;-51
2022/08/14 10:18:16;;;;;;;0.68;0.30;;;;;;;30.04;62.47;99931.06;5029965;28;20040;-54
2022/08/14 10:20:55;;;;;;;0.20;0.20;;;;;;;30.13;60.57;99931.00;5026140;28;20442;-52
2022/08/14 10:23:23;;;;;;;2.47;0.20;;;;;;;30.18;61.93;99923.38;5024353;28;20032;-55
2022/08/14 10:25:56;;;;;;;0.30;0.30;;;;;;;30.17;60.61;99924.50;5025306;28;20033;-51
2022/08/14 10:28:22;;;;;;;0.45;0.20;;;;;;;30.33;59.41;99918.44;5018820;28;20034;-54
2022/08/14 10:30:52;;;;;;;0.70;0.15;;;;;;;30.52;57.32;99924.19;5015639;28;20056;-53
2022/08/14 10:33:28;;;;;;;1.15;0.20;;;;;;;30.58;57.99;99920.09;5026006;28;20040;-54
2022/08/14 10:35:54;;;;;;;2.83;0.13;;;;;;;30.67;57.31;99916.44;5020784;28;20056;-52
2022/08/14 10:38:27;;;;;;;0.90;0.25;;;;;;;30.81;56.21;99919.66;5021695;28;20036;-53
2022/08/14 10:40:53;;;;;;;1.20;0.47;;;;;;;30.64;55.19;99913.28;5023367;28;20053;-53
2022/08/14 10:43:24;;;;;;;0.68;0.20;;;;;;;30.61;55.79;99913.94;5027100;28;20033;-54
2022/08/14 10:45:56;;;;;;;0.68;0.20;;;;;;;30.59;54.40;99905.28;5024399;28;20107;-50
2022/08/14 10:48:22;;;;;;;0.73;0.20;;;;;;;30.70;53.76;99904.84;5016747;28;20116;-56
2022/08/14 10:50:50;;;;;;;1.17;0.65;;;;;;;30.76;51.45;99898.00;5017127;28;20535;-54
2022/08/14 10:53:27;;;;;;;1.98;0.20;;;;;;;30.81;50.28;99904.06;5026627;28;20148;-51
2022/08/14 10:56:00;;;;;;;4.13;0.22;;;;;;;31.06;50.94;99899.41;5015204;28;20062;-50
2022/08/14 10:58:28;;;;;;;0.57;0.10;;;;;;;31.22;50.75;99898.72;5015796;28;20355;-55
2022/08/14 11:00:57;;;;;;;0.00;0.00;;;;;;;31.38;49.30;99890.63;5021200;28;20036;-56
2022/08/14 11:03:24;;;;;;;0.10;0.10;;;;;;;31.40;49.23;99899.28;5020371;28;20121;-54
2022/08/14 11:05:51;;;;;;;0.98;0.28;;;;;;;31.48;48.69;99885.44;5018570;28;20072;-51
2022/08/14 11:08:29;;;;;;;2.05;0.13;;;;;;;31.70;47.12;99886.88;5025103;28;20064;-51
2022/08/14 11:10:57;;;;;;;0.45;0.10;;;;;;;31.75;48.23;99885.81;5018846;28;20105;-55
2022/08/14 11:13:28;;;;;;;0.13;0.13;;;;;;;31.70;47.34;99875.09;5022075;28;20042;-50
2022/08/14 11:15:56;;;;;;;5.28;0.30;;;;;;;31.91;47.67;99881.22;5025624;28;20074;-49
2022/08/14 11:18:22;;;;;;;1.02;0.35;;;;;;;32.21;47.30;99877.31;5014933;28;20391;-50
2022/08/14 11:20:53;;;;;;;0.25;0.17;;;;;;;32.34;46.78;99870.59;5021217;28;20056;-52
2022/08/14 11:23:20;;;;;;;1.35;0.30;;;;;;;32.46;45.68;99870.53;5026098;28;20029;-53
2022/08/14 11:25:48;;;;;;;0.10;0.00;;;;;;;32.59;44.54;99863.06;5020872;28;20414;-53
2022/08/14 11:28:14;;;;;;;2.28;0.20;;;;;;;32.52;44.09;99865.59;5018208;28;20040;-55
2022/08/14 11:30:43;;;;;;;0.13;0.10;;;;;;;32.52;44.82;99865.59;5018127;28;20073;-55
2022/08/14 11:33:09;;;;;;;0.95;0.15;;;;;;;32.63;43.70;99854.91;5020288;28;20430;-51
2022/08/14 11:35:36;;;;;;;1.17;0.17;;;;;;;32.70;44.27;99860.56;5021234;28;20524;-54
2022/08/14 11:38:04;;;;;;;1.75;0.25;;;;;;;32.86;45.19;99857.78;5020011;28;20025;-52